createdAt,value
2022-09-09T00:02:19.104Z,99.90
2022-09-09T00:04:55.682Z,99.90
2022-09-09T00:07:33.772Z,99.90
2022-09-09T00:10:19.364Z,99.90
2022-09-09T00:12:56.892Z,99.90
2022-09-09T00:15:39.746Z,99.90
2022-09-09T00:18:33.227Z,99.90
2022-09-09T00:21:08.648Z,99.90
2022-09-09T00:23:40.990Z,99.90
2022-09-09T00:26:14.070Z,99.90
2022-09-09T00:28:49.975Z,99.90
2022-09-09T00:31:24.092Z,99.90
2022-09-09T00:33:51.545Z,99.90
2022-09-09T00:36:21.425Z,99.90
2022-09-09T00:38:56.820Z,99.90
2022-09-09T00:42:01.903Z,99.90
2022-09-09T00:44:37.134Z,99.90
2022-09-09T00:47:22.578Z,99.90
2022-09-09T00:50:02.960Z,99.90
2022-09-09T00:52:50.861Z,99.90
2022-09-09T00:55:29.395Z,99.90
2022-09-09T00:57:56.859Z,99.90
2022-09-09T01:00:45.547Z,99.90
2022-09-09T01:03:34.774Z,99.90
2022-09-09T01:06:16.764Z,99.90
2022-09-09T01:09:02.079Z,99.90
2022-09-09T01:11:46.338Z,99.90
2022-09-09T01:14:31.855Z,99.90
2022-09-09T01:17:16.224Z,99.90
2022-09-09T01:19:45.757Z,99.90
2022-09-09T01:22:35.894Z,99.90
2022-09-09T01:25:14.340Z,99.90
2022-09-09T01:27:44.838Z,99.90
2022-09-09T01:30:16.981Z,99.90
2022-09-09T01:32:50.552Z,99.90
2022-09-09T01:35:32.761Z,99.90
2022-09-09T01:37:59.425Z,99.90
2022-09-09T01:40:26.856Z,99.90
2022-09-09T01:42:54.119Z,99.90
2022-09-09T01:45:22.349Z,99.90
2022-09-09T01:47:49.382Z,99.90
2022-09-09T01:50:17.843Z,99.90
2022-09-09T01:52:47.261Z,99.90
2022-09-09T01:55:15.156Z,99.90
2022-09-09T01:57:50.184Z,99.90
2022-09-09T02:00:17.418Z,99.90
2022-09-09T02:03:09.423Z,99.90
2022-09-09T02:05:43.035Z,99.90
2022-09-09T02:08:11.668Z,99.90
2022-09-09T02:10:48.228Z,99.90
2022-09-09T02:13:19.749Z,99.90
2022-09-09T02:16:21.856Z,99.90
2022-09-09T02:19:03.822Z,99.90
2022-09-09T02:21:31.974Z,99.90
2022-09-09T02:24:01.286Z,99.90
2022-09-09T02:26:28.873Z,99.90
2022-09-09T02:28:58.582Z,99.90
2022-09-09T02:31:26.862Z,99.90
2022-09-09T02:33:57.359Z,99.90
2022-09-09T02:36:27.622Z,99.90
2022-09-09T02:38:55.476Z,99.90
2022-09-09T02:41:27.347Z,99.90
2022-09-09T02:43:54.049Z,99.90
2022-09-09T02:47:02.045Z,99.90
2022-09-09T02:49:50.945Z,99.90
2022-09-09T02:52:42.611Z,99.90
2022-09-09T02:55:22.600Z,99.90
2022-09-09T02:57:50.913Z,99.90
2022-09-09T03:00:23.113Z,99.90
2022-09-09T03:02:50.278Z,99.90
2022-09-09T03:05:17.038Z,99.90
2022-09-09T03:07:43.882Z,99.90
2022-09-09T03:10:11.613Z,99.90
2022-09-09T03:12:38.393Z,99.90
2022-09-09T03:15:05.631Z,99.90
2022-09-09T03:17:32.482Z,99.90
2022-09-09T03:19:59.751Z,99.90
2022-09-09T03:22:26.650Z,99.90
2022-09-09T03:24:53.746Z,99.90
2022-09-09T03:27:20.512Z,99.90
2022-09-09T03:29:47.583Z,99.90
2022-09-09T03:32:17.561Z,99.90
2022-09-09T03:34:44.922Z,99.90
2022-09-09T03:37:11.842Z,99.90
2022-09-09T03:39:38.646Z,99.90
2022-09-09T03:42:06.618Z,99.90
2022-09-09T03:44:33.382Z,99.90
2022-09-09T03:47:02.763Z,99.90
2022-09-09T03:49:29.556Z,99.90
2022-09-09T03:51:58.157Z,99.90
2022-09-09T03:54:25.786Z,99.90
2022-09-09T03:56:52.545Z,99.90
2022-09-09T03:59:19.258Z,99.90
2022-09-09T04:01:46.572Z,99.90
2022-09-09T04:04:13.772Z,99.90
2022-09-09T04:06:40.533Z,99.90
2022-09-09T04:09:07.243Z,99.90
2022-09-09T04:11:34.448Z,99.90
2022-09-09T04:14:01.573Z,99.90
2022-09-09T04:16:28.301Z,99.90
2022-09-09T04:18:55.010Z,99.90
2022-09-09T04:21:22.367Z,99.90
2022-09-09T04:23:49.060Z,99.90
2022-09-09T04:26:15.860Z,99.90
2022-09-09T04:28:42.673Z,99.90
2022-09-09T04:31:24.571Z,99.90
2022-09-09T04:33:52.271Z,99.90
2022-09-09T04:36:20.422Z,99.90
2022-09-09T04:38:47.563Z,99.90
2022-09-09T04:41:14.550Z,99.90
2022-09-09T04:43:41.380Z,99.90
2022-09-09T04:46:08.489Z,99.90
2022-09-09T04:48:35.505Z,99.90
2022-09-09T04:51:05.897Z,99.90
2022-09-09T04:53:35.122Z,99.90
2022-09-09T04:56:16.226Z,99.90
2022-09-09T04:58:46.769Z,99.90
2022-09-09T05:01:19.321Z,99.90
2022-09-09T05:03:47.210Z,99.90
2022-09-09T05:06:16.752Z,99.90
2022-09-09T05:08:44.566Z,99.90
2022-09-09T05:11:22.820Z,99.90
2022-09-09T05:13:51.360Z,99.90
2022-09-09T05:16:19.450Z,99.90
2022-09-09T05:18:55.869Z,99.90
2022-09-09T05:21:26.050Z,99.90
2022-09-09T05:23:52.805Z,99.90
2022-09-09T05:26:23.800Z,99.90
2022-09-09T05:28:50.642Z,99.90
2022-09-09T05:31:18.708Z,99.90
2022-09-09T05:33:49.095Z,99.90
2022-09-09T05:36:19.201Z,99.90
2022-09-09T05:38:46.537Z,99.90
2022-09-09T05:41:16.354Z,99.90
2022-09-09T05:43:45.477Z,99.90
2022-09-09T05:46:14.596Z,99.90
2022-09-09T05:48:43.313Z,99.90
2022-09-09T05:51:16.715Z,99.90
2022-09-09T05:53:45.280Z,99.90
2022-09-09T05:56:18.477Z,99.90
2022-09-09T05:58:47.837Z,99.90
2022-09-09T06:01:16.150Z,99.90
2022-09-09T06:03:44.562Z,99.90
2022-09-09T06:06:21.775Z,99.90
2022-09-09T06:08:49.308Z,99.90
2022-09-09T06:11:21.738Z,99.90
2022-09-09T06:13:49.181Z,99.90
2022-09-09T06:16:19.411Z,99.90
2022-09-09T06:18:46.426Z,99.90
2022-09-09T06:21:17.670Z,99.90
2022-09-09T06:23:45.515Z,99.90
2022-09-09T06:26:25.094Z,99.90
2022-09-09T06:28:53.735Z,99.90
2022-09-09T06:31:27.027Z,99.90
2022-09-09T06:33:57.300Z,99.90
2022-09-09T06:36:26.770Z,99.90
2022-09-09T06:38:53.589Z,99.90
2022-09-09T06:41:22.089Z,99.90
2022-09-09T06:43:49.040Z,99.90
2022-09-09T06:46:23.754Z,99.90
2022-09-09T06:48:51.166Z,99.90
2022-09-09T06:51:20.099Z,99.90
2022-09-09T06:53:47.929Z,99.90
2022-09-09T06:56:17.859Z,99.90
2022-09-09T06:58:45.935Z,99.90
2022-09-09T07:01:24.198Z,99.90
2022-09-09T07:03:53.393Z,99.90
2022-09-09T07:06:26.035Z,99.90
2022-09-09T07:08:56.543Z,99.90
2022-09-09T07:11:26.815Z,99.90
2022-09-09T07:13:54.286Z,99.90
2022-09-09T07:16:24.493Z,99.90
2022-09-09T07:18:52.490Z,99.90
2022-09-09T07:21:21.888Z,99.90
2022-09-09T07:23:48.707Z,99.90
2022-09-09T07:26:18.147Z,99.90
2022-09-09T07:28:44.854Z,99.90
2022-09-09T07:31:24.003Z,99.90
2022-09-09T07:33:50.704Z,99.90
2022-09-09T07:36:22.851Z,99.90
2022-09-09T07:38:52.821Z,99.90
2022-09-09T07:41:23.162Z,99.90
2022-09-09T07:43:51.438Z,99.90
2022-09-09T07:46:22.901Z,99.90
2022-09-09T07:48:52.829Z,99.80
2022-09-09T07:51:25.427Z,98.90
2022-09-09T07:54:00.831Z,96.20
2022-09-09T07:56:28.982Z,94.70
2022-09-09T07:58:57.400Z,93.70
2022-09-09T08:01:30.175Z,86.90
2022-09-09T08:04:09.003Z,88.50
2022-09-09T08:06:41.007Z,86.00
2022-09-09T08:09:08.980Z,82.10
2022-09-09T08:11:39.125Z,81.80
2022-09-09T08:14:08.677Z,80.50
2022-09-09T08:16:41.284Z,81.80
2022-09-09T08:19:08.851Z,80.90
2022-09-09T08:21:38.412Z,81.90
2022-09-09T08:24:08.517Z,81.10
2022-09-09T08:26:38.255Z,78.90
2022-09-09T08:29:06.645Z,79.00
2022-09-09T08:31:41.382Z,77.00
2022-09-09T08:34:09.706Z,74.50
2022-09-09T08:36:39.303Z,73.20
2022-09-09T08:39:07.978Z,70.10
2022-09-09T08:41:53.213Z,64.10
2022-09-09T08:44:34.813Z,61.60
2022-09-09T08:47:19.508Z,58.80
2022-09-09T08:50:07.866Z,58.00
2022-09-09T08:53:02.530Z,54.80
2022-09-09T08:56:00.243Z,54.90
2022-09-09T08:58:32.812Z,52.90
2022-09-09T09:01:29.923Z,54.10
2022-09-09T09:04:05.429Z,54.20
2022-09-09T09:06:42.129Z,52.30
2022-09-09T09:09:11.767Z,52.40
2022-09-09T09:12:01.815Z,52.30
2022-09-09T09:14:35.542Z,50.90
2022-09-09T09:17:10.511Z,51.20
2022-09-09T09:19:41.153Z,51.30
2022-09-09T09:22:23.392Z,51.70
2022-09-09T09:25:06.135Z,50.50
2022-09-09T09:27:34.213Z,52.10
2022-09-09T09:30:28.591Z,50.70
2022-09-09T09:33:20.929Z,52.00
2022-09-09T09:35:49.394Z,51.90
2022-09-09T09:41:09.999Z,53.20
2022-09-09T09:43:40.959Z,53.30
2022-09-09T09:46:24.397Z,53.10
2022-09-09T09:49:11.078Z,53.20
2022-09-09T09:51:37.804Z,54.00
2022-09-09T09:54:17.772Z,54.10
2022-09-09T09:56:45.995Z,54.20
2022-09-09T09:59:40.350Z,54.70
2022-09-09T10:02:18.238Z,54.50
2022-09-09T10:04:48.928Z,54.50
2022-09-09T10:07:21.502Z,54.10
2022-09-09T10:09:55.870Z,53.50
2022-09-09T10:13:08.045Z,52.90
2022-09-09T10:15:52.561Z,51.30
2022-09-09T10:18:34.202Z,51.10
2022-09-09T10:21:14.913Z,50.70
2022-09-09T10:23:56.401Z,50.90
2022-09-09T10:26:26.100Z,50.40
2022-09-09T10:29:14.570Z,50.90
2022-09-09T10:32:01.485Z,50.60
2022-09-09T10:34:56.101Z,50.90
2022-09-09T10:37:48.859Z,51.00
2022-09-09T10:40:32.480Z,50.50
2022-09-09T10:43:37.870Z,50.60
2022-09-09T10:46:21.974Z,48.90
2022-09-09T10:49:25.372Z,48.50
2022-09-09T10:52:35.678Z,48.40
2022-09-09T10:55:14.747Z,47.70
2022-09-09T10:57:46.954Z,47.20
2022-09-09T11:00:25.779Z,46.50
2022-09-09T11:03:02.995Z,45.80
2022-09-09T11:05:49.613Z,44.90
2022-09-09T11:08:27.904Z,43.80
2022-09-09T11:11:12.936Z,43.70
2022-09-09T11:14:04.071Z,43.60
2022-09-09T11:16:51.917Z,44.00
2022-09-09T11:19:22.256Z,44.00
2022-09-09T11:21:52.063Z,43.50
2022-09-09T11:24:42.526Z,43.50
2022-09-09T11:27:17.088Z,42.60
2022-09-09T11:30:13.797Z,43.00
2022-09-09T11:32:51.056Z,42.80
2022-09-09T11:35:42.433Z,42.50
2022-09-09T11:38:43.167Z,42.60
2022-09-09T11:41:11.121Z,42.10
2022-09-09T11:43:49.919Z,41.60
2022-09-09T11:46:19.987Z,42.70
2022-09-09T11:48:59.534Z,41.90
2022-09-09T11:51:27.673Z,41.50
2022-09-09T11:54:03.586Z,41.40
2022-09-09T11:56:45.128Z,41.10
2022-09-09T11:59:34.239Z,41.30
2022-09-09T12:02:03.615Z,40.60
2022-09-09T12:04:36.097Z,40.90
2022-09-09T12:07:06.991Z,41.20
2022-09-09T12:09:46.522Z,41.50
2022-09-09T12:12:13.166Z,41.40
2022-09-09T12:14:39.981Z,41.70
2022-09-09T12:17:15.795Z,41.60
2022-09-09T12:19:43.152Z,41.90
2022-09-09T12:22:48.747Z,42.30
2022-09-09T12:25:31.789Z,41.80
2022-09-09T12:28:02.651Z,41.80
2022-09-09T12:31:02.582Z,40.90
2022-09-09T12:33:37.989Z,41.00
2022-09-09T12:36:07.095Z,40.80
2022-09-09T12:38:37.671Z,41.20
2022-09-09T12:41:04.849Z,41.20
2022-09-09T12:43:32.005Z,41.50
2022-09-09T12:46:05.198Z,41.80
2022-09-09T12:48:37.788Z,42.00
2022-09-09T12:51:08.407Z,42.50
2022-09-09T12:53:37.495Z,43.50
2022-09-09T12:56:11.126Z,43.80
2022-09-09T12:58:39.168Z,43.20
2022-09-09T13:01:07.552Z,43.90
2022-09-09T13:03:43.864Z,42.80
2022-09-09T13:06:20.683Z,41.80
2022-09-09T13:08:47.447Z,40.70
2022-09-09T13:11:20.517Z,40.90
2022-09-09T13:13:53.906Z,40.70
2022-09-09T13:16:32.960Z,41.00
2022-09-09T13:19:02.696Z,41.20
2022-09-09T13:21:38.198Z,41.60
2022-09-09T13:24:08.571Z,42.20
2022-09-09T13:26:36.053Z,43.20
2022-09-09T13:29:18.954Z,43.00
2022-09-09T13:31:46.388Z,42.60
2022-09-09T13:34:31.773Z,42.60
2022-09-09T13:37:18.636Z,43.40
2022-09-09T13:39:56.657Z,42.30
2022-09-09T13:42:27.702Z,42.00
2022-09-09T13:44:56.652Z,42.00
2022-09-09T13:47:35.484Z,42.70
2022-09-09T13:50:29.439Z,43.00
2022-09-09T13:53:01.372Z,41.40
2022-09-09T13:55:29.513Z,37.90
2022-09-09T13:58:04.129Z,35.30
2022-09-09T14:00:35.311Z,32.40
2022-09-09T14:03:04.916Z,30.60
2022-09-09T14:05:34.112Z,30.10
2022-09-09T14:08:04.471Z,31.30
2022-09-09T14:10:31.510Z,33.10
2022-09-09T14:12:58.195Z,34.90
2022-09-09T14:15:25.153Z,36.10
2022-09-09T14:17:53.177Z,37.80
2022-09-09T14:20:20.283Z,39.70
2022-09-09T14:22:47.175Z,41.10
2022-09-09T14:25:14.546Z,41.60
2022-09-09T14:27:41.737Z,42.40
2022-09-09T14:30:09.498Z,42.90
2022-09-09T14:32:36.161Z,44.10
2022-09-09T14:35:03.219Z,45.90
2022-09-09T14:37:32.103Z,69.60
2022-09-09T14:39:59.316Z,96.50
2022-09-09T14:42:28.822Z,99.90
2022-09-09T14:44:55.578Z,99.90
2022-09-09T14:47:23.069Z,99.90
2022-09-09T14:49:50.846Z,99.90
2022-09-09T14:52:17.677Z,99.90
2022-09-09T14:54:44.358Z,99.90
2022-09-09T14:57:11.157Z,99.90
2022-09-09T14:59:37.845Z,99.90
2022-09-09T15:02:05.550Z,99.90
2022-09-09T15:04:32.934Z,99.90
2022-09-09T15:07:00.094Z,99.90
2022-09-09T15:09:27.077Z,99.90
2022-09-09T15:11:53.875Z,99.90
2022-09-09T15:14:22.582Z,99.90
2022-09-09T15:16:52.238Z,99.90
2022-09-09T15:19:19.026Z,99.90
2022-09-09T15:21:45.779Z,99.90
2022-09-09T15:24:14.569Z,99.90
2022-09-09T15:26:41.444Z,99.90
2022-09-09T15:29:09.125Z,99.90
2022-09-09T15:31:36.310Z,99.90
2022-09-09T15:34:05.359Z,99.90
2022-09-09T15:36:46.967Z,99.90
2022-09-09T15:39:16.743Z,99.90
2022-09-09T15:41:44.597Z,99.90
2022-09-09T15:44:13.152Z,99.90
2022-09-09T15:46:42.861Z,99.90
2022-09-09T15:49:14.970Z,99.90
2022-09-09T15:51:47.179Z,99.90
2022-09-09T15:54:18.875Z,99.90
2022-09-09T15:56:48.599Z,99.90
2022-09-09T15:59:15.937Z,99.90
2022-09-09T16:01:43.984Z,99.90
2022-09-09T16:04:11.167Z,99.90
2022-09-09T16:06:37.903Z,99.90
2022-09-09T16:09:06.775Z,99.90
2022-09-09T16:11:36.717Z,99.90
2022-09-09T16:14:04.994Z,99.90
2022-09-09T16:16:32.233Z,99.90
2022-09-09T16:19:01.244Z,99.90
2022-09-09T16:21:33.962Z,99.90
2022-09-09T16:24:03.264Z,99.90
2022-09-09T16:26:32.802Z,99.90
2022-09-09T16:29:00.563Z,99.90
2022-09-09T16:31:28.619Z,99.90
2022-09-09T16:33:55.541Z,99.90
2022-09-09T16:36:27.707Z,99.90
2022-09-09T16:38:56.162Z,99.90
2022-09-09T16:41:23.290Z,99.90
2022-09-09T16:43:57.687Z,99.90
2022-09-09T16:46:25.295Z,99.90
2022-09-09T16:48:53.233Z,99.90
2022-09-09T16:51:23.050Z,99.90
2022-09-09T16:53:49.721Z,99.90
2022-09-09T16:56:19.767Z,99.90
2022-09-09T16:58:52.162Z,99.90
2022-09-09T17:01:19.376Z,99.90
2022-09-09T17:03:46.096Z,99.90
2022-09-09T17:06:14.270Z,99.90
2022-09-09T17:08:44.911Z,99.90
2022-09-09T17:11:19.274Z,99.90
2022-09-09T17:13:47.422Z,99.90
2022-09-09T17:16:16.327Z,99.90
2022-09-09T17:18:43.030Z,99.90
2022-09-09T17:21:15.067Z,99.90
2022-09-09T17:23:42.682Z,99.90
2022-09-09T17:26:12.058Z,99.90
2022-09-09T17:28:39.891Z,99.90
2022-09-09T17:31:11.898Z,99.90
2022-09-09T17:33:41.270Z,99.90
2022-09-09T17:36:23.147Z,99.90
2022-09-09T17:38:50.573Z,99.90
2022-09-09T17:41:22.854Z,99.90
2022-09-09T17:43:50.529Z,99.90
2022-09-09T17:46:29.511Z,99.90
2022-09-09T17:48:59.611Z,99.90
2022-09-09T17:51:30.597Z,99.90
2022-09-09T17:53:59.962Z,99.90
2022-09-09T17:56:29.251Z,99.90
2022-09-09T17:58:56.341Z,99.90
2022-09-09T18:01:27.811Z,99.90
2022-09-09T18:03:57.475Z,99.90
2022-09-09T18:06:30.828Z,99.90
2022-09-09T18:09:04.841Z,99.90
2022-09-09T18:11:34.765Z,99.90
2022-09-09T18:14:04.856Z,99.90
2022-09-09T18:16:36.073Z,99.90
2022-09-09T18:19:05.451Z,99.90
2022-09-09T18:21:34.170Z,99.90
2022-09-09T18:24:03.607Z,99.90
2022-09-09T18:26:31.364Z,99.90
2022-09-09T18:28:59.451Z,99.90
2022-09-09T18:31:28.726Z,99.90
2022-09-09T18:33:57.351Z,99.90
2022-09-09T18:36:27.129Z,99.90
2022-09-09T18:38:56.654Z,99.90
2022-09-09T18:41:29.625Z,99.90
2022-09-09T18:44:00.622Z,99.90
2022-09-09T18:46:30.962Z,99.90
2022-09-09T18:48:57.737Z,99.90
2022-09-09T18:51:27.156Z,99.90
2022-09-09T18:54:00.550Z,99.90
2022-09-09T18:56:29.444Z,99.90
2022-09-09T18:58:58.998Z,99.90
2022-09-09T19:01:26.947Z,99.90
2022-09-09T19:03:54.297Z,99.90
2022-09-09T19:06:23.844Z,99.90
2022-09-09T19:08:55.419Z,99.90
2022-09-09T19:11:24.890Z,99.90
2022-09-09T19:13:54.746Z,99.90
2022-09-09T19:16:23.223Z,99.90
2022-09-09T19:18:51.935Z,99.90
2022-09-09T19:21:19.899Z,99.90
2022-09-09T19:23:47.326Z,99.90
2022-09-09T19:26:17.519Z,99.90
2022-09-09T19:28:50.026Z,99.90
2022-09-09T19:31:18.834Z,99.90
2022-09-09T19:33:47.172Z,99.90
2022-09-09T19:36:18.217Z,99.90
2022-09-09T19:38:47.821Z,99.90
2022-09-09T19:41:18.337Z,99.90
2022-09-09T19:43:46.055Z,99.90
2022-09-09T19:46:14.430Z,99.90
2022-09-09T19:48:42.442Z,99.90
2022-09-09T19:51:17.689Z,99.90
2022-09-09T19:53:57.996Z,99.90
2022-09-09T19:56:27.536Z,99.90
2022-09-09T19:58:54.739Z,99.90
2022-09-09T20:01:28.080Z,99.90
2022-09-09T20:03:56.918Z,99.90
2022-09-09T20:06:29.062Z,99.90
2022-09-09T20:08:57.114Z,99.90
2022-09-09T20:11:25.134Z,99.90
2022-09-09T20:13:51.922Z,99.90
2022-09-09T20:16:22.618Z,99.90
2022-09-09T20:18:54.082Z,99.90
2022-09-09T20:21:23.887Z,99.90
2022-09-09T20:23:52.219Z,99.90
2022-09-09T20:26:22.080Z,99.90
2022-09-09T20:28:50.764Z,99.90
2022-09-09T20:31:20.404Z,99.90
2022-09-09T20:33:47.855Z,99.90
2022-09-09T20:36:18.149Z,99.90
2022-09-09T20:38:51.396Z,99.90
2022-09-09T20:41:21.389Z,99.90
2022-09-09T20:43:53.118Z,99.90
2022-09-09T20:46:25.411Z,99.90
2022-09-09T20:49:00.764Z,99.90
2022-09-09T20:51:32.989Z,99.90
2022-09-09T20:54:03.805Z,99.90
2022-09-09T20:56:33.896Z,99.90
2022-09-09T20:59:02.054Z,99.90
2022-09-09T21:01:28.880Z,99.90
2022-09-09T21:03:55.961Z,99.90
2022-09-09T21:06:22.862Z,99.90
2022-09-09T21:08:49.918Z,99.90
2022-09-09T21:11:17.510Z,99.90
2022-09-09T21:13:44.856Z,99.90
2022-09-09T21:16:15.035Z,99.90
2022-09-09T21:18:44.357Z,99.90
2022-09-09T21:21:11.712Z,99.90
2022-09-09T21:23:38.578Z,99.90
2022-09-09T21:26:06.702Z,99.90
2022-09-09T21:28:34.516Z,99.90
2022-09-09T21:31:01.489Z,99.90
2022-09-09T21:33:28.679Z,99.90
2022-09-09T21:36:02.688Z,99.90
2022-09-09T21:38:29.820Z,99.90
2022-09-09T21:40:56.761Z,99.90
2022-09-09T21:43:23.667Z,99.90
2022-09-09T21:45:53.654Z,99.90
2022-09-09T21:48:20.419Z,99.90
2022-09-09T21:50:48.124Z,99.90
2022-09-09T21:53:20.201Z,99.90
2022-09-09T21:55:48.951Z,99.90
2022-09-09T21:58:16.479Z,99.90
2022-09-09T22:00:45.577Z,99.90
2022-09-09T22:03:14.233Z,99.90
2022-09-09T22:05:42.995Z,99.90
2022-09-09T22:08:11.439Z,99.90
2022-09-09T22:10:39.950Z,99.90
2022-09-09T22:13:07.439Z,99.90
2022-09-09T22:15:34.979Z,99.90
2022-09-09T22:18:05.856Z,99.90
2022-09-09T22:20:34.963Z,99.90
2022-09-09T22:23:01.876Z,99.90
2022-09-09T22:25:33.430Z,99.90
2022-09-09T22:28:00.095Z,99.90
2022-09-09T22:30:27.219Z,99.90
2022-09-09T22:32:54.844Z,99.90
2022-09-09T22:35:23.620Z,99.90
2022-09-09T22:37:50.282Z,99.90
2022-09-09T22:40:16.988Z,99.90
2022-09-09T22:42:43.867Z,99.90
2022-09-09T22:45:11.831Z,99.90
2022-09-09T22:47:42.634Z,99.90
2022-09-09T22:50:10.023Z,99.90
2022-09-09T22:52:37.048Z,99.90
2022-09-09T22:55:04.102Z,99.90
2022-09-09T22:57:31.159Z,99.90
2022-09-09T22:59:59.036Z,99.90
2022-09-09T23:02:26.568Z,99.90
2022-09-09T23:04:53.212Z,99.90
2022-09-09T23:07:22.888Z,99.90
2022-09-09T23:09:49.603Z,99.90
2022-09-09T23:12:20.638Z,99.90
2022-09-09T23:14:48.031Z,99.90
2022-09-09T23:17:16.228Z,99.90
2022-09-09T23:19:43.631Z,99.90
2022-09-09T23:22:11.349Z,99.90
2022-09-09T23:24:38.094Z,99.90
2022-09-09T23:27:05.114Z,99.90
2022-09-09T23:29:31.766Z,99.90
2022-09-09T23:31:58.439Z,99.90
2022-09-09T23:34:25.263Z,99.90
2022-09-09T23:36:53.535Z,99.90
2022-09-09T23:39:20.282Z,99.90
2022-09-09T23:41:50.328Z,99.90
2022-09-09T23:44:17.863Z,99.90
2022-09-09T23:46:44.671Z,99.90
2022-09-09T23:49:11.438Z,99.90
2022-09-09T23:51:38.641Z,99.90
2022-09-09T23:54:06.247Z,99.90
2022-09-09T23:56:39.042Z,99.90
2022-09-09T23:59:07.173Z,99.90
